Time;durP1;ratioP1;P1;durP2;ratioP2;P2;SDS_P1;SDS_P2;PMS_P1;PMS_P2;Temp;Humidity;BMP_temperature;BMP_pressure;BME280_temperature;BME280_humidity;BME280_pressure;Samples;Min_cycle;Max_cycle;Signal;HPM_P1;HPM_P2
2021/11/14 00:01:45;;;;;;;26.80;17.83;;;10.80;87.30;;;;;;5090198;28;20470;-72
2021/11/14 00:04:11;;;;;;;20.85;17.23;;;10.80;87.30;;;;;;5071237;28;20088;-72
2021/11/14 00:09:34;;;;;;;21.42;17.55;;;10.80;87.20;;;;;;5056424;28;20138;-72
2021/11/14 00:11:59;;;;;;;20.10;16.98;;;10.80;87.10;;;;;;5090348;28;20075;-71
2021/11/14 00:14:25;;;;;;;26.50;16.45;;;10.80;87.10;;;;;;5089585;28;20106;-71
2021/11/14 00:16:51;;;;;;;23.25;17.42;;;10.80;87.00;;;;;;5089394;28;20020;-71
2021/11/14 00:19:17;;;;;;;19.27;16.60;;;10.70;86.90;;;;;;5089412;28;20036;-72
2021/11/14 00:21:43;;;;;;;17.88;15.93;;;10.80;86.90;;;;;;5097923;28;20025;-71
2021/11/14 00:24:14;;;;;;;16.92;15.13;;;10.70;86.80;;;;;;5090016;28;20031;-72
2021/11/14 00:26:40;;;;;;;16.77;14.98;;;10.70;86.60;;;;;;5081908;28;20020;-71
2021/11/14 00:29:07;;;;;;;18.17;15.15;;;10.70;86.40;;;;;;5071548;28;20097;-71
2021/11/14 00:31:34;;;;;;;17.42;15.63;;;10.60;86.30;;;;;;5089616;28;20024;-72
2021/11/14 00:34:01;;;;;;;17.58;15.70;;;10.60;86.10;;;;;;5071014;28;20062;-72
2021/11/14 00:36:31;;;;;;;17.25;15.38;;;10.60;86.10;;;;;;5088624;28;20035;-71
2021/11/14 00:38:58;;;;;;;17.80;14.20;;;10.60;86.00;;;;;;5071516;28;20047;-71
2021/11/14 00:41:24;;;;;;;16.40;14.70;;;10.50;86.00;;;;;;5089473;28;20039;-72
2021/11/14 00:43:52;;;;;;;17.92;16.05;;;10.50;86.10;;;;;;5088994;28;20028;-71
2021/11/14 00:46:18;;;;;;;17.27;15.48;;;10.50;86.20;;;;;;5087365;28;20021;-71
2021/11/14 00:48:44;;;;;;;18.10;15.10;;;10.50;86.20;;;;;;5088709;28;20047;-72
2021/11/14 00:51:12;;;;;;;21.27;16.08;;;10.50;86.20;;;;;;5088980;28;20016;-77
2021/11/14 00:53:38;;;;;;;17.52;15.68;;;10.50;86.20;;;;;;5089306;28;20028;-77
2021/11/14 00:56:05;;;;;;;16.65;14.85;;;10.50;86.10;;;;;;5077198;28;20037;-76
2021/11/14 00:58:30;;;;;;;16.38;14.63;;;10.50;86.10;;;;;;5068959;28;20430;-76
2021/11/14 01:00:57;;;;;;;17.77;15.27;;;10.50;86.00;;;;;;5068618;28;20032;-76
2021/11/14 01:03:23;;;;;;;17.67;15.77;;;10.50;85.90;;;;;;5069682;28;20115;-76
2021/11/14 01:05:50;;;;;;;17.13;14.00;;;10.50;85.80;;;;;;5088780;28;20130;-76
2021/11/14 01:08:16;;;;;;;19.67;15.13;;;10.50;85.80;;;;;;5089008;28;20486;-76
2021/11/14 01:10:48;;;;;;;18.35;15.63;;;10.40;85.80;;;;;;5070830;28;20123;-76
2021/11/14 01:13:14;;;;;;;20.23;14.65;;;10.40;85.90;;;;;;5088664;28;20105;-77
2021/11/14 01:15:41;;;;;;;17.45;15.13;;;10.40;85.80;;;;;;5088180;28;20032;-77
2021/11/14 01:18:08;;;;;;;23.42;15.98;;;10.40;85.90;;;;;;5089526;28;20032;-76
2021/11/14 01:20:37;;;;;;;16.83;14.82;;;10.40;86.00;;;;;;5089009;28;20518;-77
2021/11/14 01:23:05;;;;;;;16.20;14.38;;;10.40;86.00;;;;;;5070278;28;20366;-77
2021/11/14 01:25:31;;;;;;;16.80;14.60;;;10.40;86.10;;;;;;5088175;28;20032;-72
2021/11/14 01:27:57;;;;;;;15.57;13.35;;;10.40;86.00;;;;;;5088735;28;20115;-77
2021/11/14 01:30:26;;;;;;;16.27;14.57;;;10.40;85.90;;;;;;5088520;28;20103;-77
2021/11/14 01:32:53;;;;;;;18.02;15.07;;;10.40;86.00;;;;;;5088963;28;20020;-72
2021/11/14 01:35:20;;;;;;;16.83;14.55;;;10.40;86.00;;;;;;5088137;28;20379;-77
2021/11/14 01:37:47;;;;;;;17.95;15.00;;;10.40;86.00;;;;;;5088774;28;20028;-77
2021/11/14 01:40:21;;;;;;;17.85;15.65;;;10.40;86.00;;;;;;5088340;28;20363;-77
2021/11/14 01:42:47;;;;;;;18.08;15.45;;;10.40;86.10;;;;;;5088643;28;20069;-77
2021/11/14 01:45:13;;;;;;;17.58;14.73;;;10.40;86.20;;;;;;5087668;28;20036;-76
2021/11/14 01:47:40;;;;;;;16.42;14.40;;;10.40;86.30;;;;;;5089271;28;20024;-76
2021/11/14 01:50:08;;;;;;;20.00;15.95;;;10.40;86.40;;;;;;5088782;28;20024;-76
2021/11/14 01:52:33;;;;;;;18.55;15.57;;;10.40;86.50;;;;;;5070843;28;20092;-72
2021/11/14 01:54:59;;;;;;;20.02;16.65;;;10.40;86.60;;;;;;5070408;28;20036;-72
2021/11/14 01:57:25;;;;;;;18.77;16.13;;;10.40;86.70;;;;;;5070646;28;20035;-72
2021/11/14 01:59:52;;;;;;;20.75;16.23;;;10.40;86.80;;;;;;5091414;28;20486;-72
2021/11/14 02:02:17;;;;;;;22.92;17.83;;;10.40;86.90;;;;;;5092324;28;20038;-72
2021/11/14 02:04:44;;;;;;;21.05;16.83;;;10.40;87.00;;;;;;5091897;28;20107;-72
2021/11/14 02:07:13;;;;;;;21.80;17.67;;;10.40;87.00;;;;;;5092132;28;20024;-72
2021/11/14 02:09:39;;;;;;;20.27;15.98;;;10.40;87.00;;;;;;5084123;28;20027;-71
2021/11/14 02:12:06;;;;;;;21.42;16.30;;;10.40;86.90;;;;;;5056509;28;20064;-72
2021/11/14 02:14:32;;;;;;;20.42;16.98;;;10.40;86.70;;;;;;5094182;28;20502;-72
2021/11/14 02:16:59;;;;;;;22.55;17.30;;;10.40;86.60;;;;;;5073597;28;20562;-72
2021/11/14 02:19:24;;;;;;;21.85;17.45;;;10.40;86.50;;;;;;5091918;28;20036;-72
2021/11/14 02:21:52;;;;;;;22.80;16.95;;;10.40;86.60;;;;;;5091678;28;20489;-77
2021/11/14 02:24:19;;;;;;;23.88;17.00;;;10.30;86.70;;;;;;5091611;28;20035;-77
2021/11/14 02:26:45;;;;;;;21.58;16.55;;;10.30;86.70;;;;;;5091326;28;20590;-77
2021/11/14 02:29:11;;;;;;;24.58;18.58;;;10.30;86.80;;;;;;5081698;28;20424;-78
2021/11/14 02:31:37;;;;;;;23.63;18.17;;;10.30;87.00;;;;;;5077754;28;20028;-77
2021/11/14 02:34:03;;;;;;;23.40;17.60;;;10.30;87.10;;;;;;5091356;28;20363;-77
2021/11/14 02:36:29;;;;;;;24.27;18.02;;;10.40;87.20;;;;;;5089842;28;20359;-77
2021/11/14 02:38:55;;;;;;;24.83;18.35;;;10.40;87.90;;;;;;5091636;28;20062;-77
2021/11/14 02:41:23;;;;;;;25.65;19.00;;;10.40;87.40;;;;;;5091356;28;20114;-77
2021/11/14 02:43:50;;;;;;;25.98;19.73;;;10.40;87.50;;;;;;5091403;28;20074;-73
2021/11/14 02:46:16;;;;;;;26.05;20.10;;;10.40;87.50;;;;;;5090232;28;20099;-72
2021/11/14 02:48:43;;;;;;;28.30;19.63;;;10.40;87.60;;;;;;5073071;28;20123;-72
2021/11/14 02:51:13;;;;;;;25.90;18.75;;;10.40;87.70;;;;;;5090953;28;20477;-72
2021/11/14 02:53:39;;;;;;;26.33;19.40;;;10.50;87.80;;;;;;5091490;28;20051;-71
2021/11/14 02:56:06;;;;;;;28.75;20.75;;;10.50;87.80;;;;;;5090099;28;20043;-71
2021/11/14 02:58:32;;;;;;;28.90;21.25;;;10.50;87.90;;;;;;5090948;28;20074;-72
2021/11/14 03:01:02;;;;;;;27.65;20.73;;;10.50;88.00;;;;;;5090851;28;20099;-72
2021/11/14 03:03:28;;;;;;;28.23;20.38;;;10.50;88.00;;;;;;5090838;28;20547;-71
2021/11/14 03:05:54;;;;;;;29.08;20.23;;;10.50;88.00;;;;;;5090212;28;20386;-71
2021/11/14 03:08:20;;;;;;;32.42;21.63;;;10.50;88.10;;;;;;5072343;28;20032;-72
2021/11/14 03:10:46;;;;;;;31.52;21.90;;;10.60;88.20;;;;;;5090845;28;20090;-72
2021/11/14 03:13:15;;;;;;;35.75;23.13;;;10.50;88.20;;;;;;5091128;28;20028;-72
2021/11/14 03:15:45;;;;;;;33.92;23.40;;;10.50;88.30;;;;;;5072247;28;20040;-72
2021/11/14 03:18:11;;;;;;;30.70;21.48;;;10.60;88.40;;;;;;5090381;28;20063;-72
2021/11/14 03:20:38;;;;;;;30.73;21.35;;;10.60;88.40;;;;;;5090553;28;20067;-72
2021/11/14 03:23:04;;;;;;;34.42;22.45;;;10.60;88.50;;;;;;5072092;28;20024;-71
2021/11/14 03:25:31;;;;;;;32.28;23.27;;;10.60;88.40;;;;;;5102451;28;20102;-72
2021/11/14 03:27:58;;;;;;;42.63;23.67;;;10.60;88.40;;;;;;5063833;28;20487;-72
2021/11/14 03:30:24;;;;;;;37.28;23.92;;;10.60;88.50;;;;;;5070564;28;20082;-72
2021/11/14 03:32:51;;;;;;;39.67;24.42;;;10.70;88.50;;;;;;5072440;28;20058;-77
2021/11/14 03:35:19;;;;;;;37.53;25.20;;;10.60;88.60;;;;;;5101499;28;20012;-72
2021/11/14 03:37:45;;;;;;;36.50;23.17;;;10.60;88.60;;;;;;5078496;28;20041;-72
2021/11/14 03:40:12;;;;;;;38.03;25.55;;;10.60;88.60;;;;;;5056400;28;20024;-72
2021/11/14 03:42:39;;;;;;;39.55;24.10;;;10.60;88.70;;;;;;5072645;28;20102;-72
2021/11/14 03:45:07;;;;;;;39.97;25.23;;;10.60;88.80;;;;;;5070887;28;20066;-72
2021/11/14 03:47:33;;;;;;;41.05;25.70;;;10.70;88.90;;;;;;5071727;28;20036;-72
2021/11/14 03:49:59;;;;;;;43.25;25.83;;;10.70;88.90;;;;;;5090245;28;20027;-72
2021/11/14 03:52:25;;;;;;;41.80;25.95;;;10.70;88.90;;;;;;5090061;28;20038;-72
2021/11/14 03:54:51;;;;;;;37.75;25.02;;;10.60;88.90;;;;;;5071832;28;20028;-73
2021/11/14 03:57:16;;;;;;;43.25;27.88;;;10.60;89.50;;;;;;5070972;28;20394;-72
2021/11/14 03:59:42;;;;;;;43.13;27.73;;;10.70;89.00;;;;;;5071416;28;20031;-72
2021/11/14 04:02:08;;;;;;;38.50;25.92;;;10.70;88.90;;;;;;5089350;28;20441;-71
2021/11/14 04:04:34;;;;;;;40.63;26.35;;;10.70;88.90;;;;;;5090034;28;20442;-72
2021/11/14 04:07:00;;;;;;;40.72;25.13;;;10.70;88.90;;;;;;5089237;28;20062;-71
2021/11/14 04:09:25;;;;;;;39.15;24.20;;;10.70;88.90;;;;;;5084727;28;20474;-72
2021/11/14 04:11:52;;;;;;;34.08;23.92;;;10.70;88.90;;;;;;5067036;28;20139;-72
2021/11/14 04:14:17;;;;;;;41.63;26.55;;;10.70;88.90;;;;;;5070661;28;20032;-71
2021/11/14 04:16:43;;;;;;;39.97;25.20;;;10.70;89.00;;;;;;5065234;28;20091;-71
2021/11/14 04:19:10;;;;;;;44.45;26.83;;;10.70;89.00;;;;;;5089296;28;20537;-71
2021/11/14 04:21:36;;;;;;;40.47;25.92;;;10.60;89.00;;;;;;5088724;28;20024;-73
2021/11/14 04:24:01;;;;;;;38.92;25.15;;;10.70;89.10;;;;;;5071421;28;20024;-71
2021/11/14 04:26:27;;;;;;;43.33;26.75;;;10.70;89.00;;;;;;5071270;28;20032;-72
2021/11/14 04:28:53;;;;;;;40.22;25.58;;;10.70;89.10;;;;;;5089440;28;20385;-71
2021/11/14 04:31:19;;;;;;;44.88;27.92;;;10.60;89.20;;;;;;5088752;28;20025;-71
2021/11/14 04:33:44;;;;;;;38.35;25.83;;;10.60;89.10;;;;;;5090394;28;20036;-71
2021/11/14 04:36:10;;;;;;;42.53;25.88;;;10.70;89.20;;;;;;5088941;28;20039;-72
2021/11/14 04:38:36;;;;;;;41.95;26.80;;;10.70;89.20;;;;;;5092766;28;20106;-71
2021/11/14 04:41:03;;;;;;;43.42;26.50;;;10.70;89.10;;;;;;5080338;28;20039;-71
2021/11/14 04:43:29;;;;;;;41.33;26.15;;;10.70;89.20;;;;;;5089313;28;20102;-71
2021/11/14 04:45:54;;;;;;;39.97;25.60;;;10.70;89.10;;;;;;5087848;28;20038;-72
2021/11/14 04:48:22;;;;;;;42.25;26.13;;;10.70;89.10;;;;;;5056557;28;20486;-71
2021/11/14 04:50:48;;;;;;;41.38;26.23;;;10.70;89.10;;;;;;5099046;28;20073;-76
2021/11/14 04:53:14;;;;;;;39.10;25.60;;;10.70;89.10;;;;;;5073311;28;20589;-77
2021/11/14 04:55:41;;;;;;;42.35;26.83;;;10.70;89.10;;;;;;5089021;28;20096;-77
2021/11/14 04:58:08;;;;;;;38.38;25.60;;;10.70;89.10;;;;;;5089027;28;20043;-73
2021/11/14 05:00:46;;;;;;;38.72;25.40;;;10.70;89.10;;;;;;5063810;28;20597;-71
2021/11/14 05:03:13;;;;;;;45.13;25.00;;;10.70;89.20;;;;;;5085641;28;20028;-72
2021/11/14 05:05:41;;;;;;;39.47;25.15;;;10.70;89.20;;;;;;5070130;28;20105;-72
2021/11/14 05:08:07;;;;;;;42.40;26.85;;;10.70;89.20;;;;;;5070889;28;20032;-72
2021/11/14 05:10:33;;;;;;;38.60;25.58;;;10.70;89.20;;;;;;5088682;28;20115;-71
2021/11/14 05:12:59;;;;;;;41.40;26.55;;;10.70;89.20;;;;;;5087851;28;20166;-72
2021/11/14 05:15:25;;;;;;;41.05;26.70;;;10.70;89.20;;;;;;5087339;28;20061;-71
2021/11/14 05:17:51;;;;;;;39.88;26.33;;;10.70;89.20;;;;;;5087219;28;20107;-76
2021/11/14 05:20:17;;;;;;;41.60;26.42;;;10.70;89.20;;;;;;5087528;28;20397;-77
2021/11/14 05:22:43;;;;;;;39.13;25.30;;;10.70;89.20;;;;;;5077928;28;20451;-76
2021/11/14 05:25:09;;;;;;;47.65;30.13;;;10.70;89.30;;;;;;5088889;28;20406;-76
2021/11/14 05:27:35;;;;;;;41.85;26.90;;;10.70;89.20;;;;;;5070251;28;20463;-77
2021/11/14 05:30:03;;;;;;;43.22;26.98;;;10.70;89.20;;;;;;5088148;28;20428;-76
2021/11/14 05:32:29;;;;;;;46.97;27.75;;;10.70;89.20;;;;;;5090606;28;20664;-76
2021/11/14 05:34:55;;;;;;;43.40;27.50;;;10.70;89.20;;;;;;5057638;28;20032;-77
2021/11/14 05:37:20;;;;;;;43.63;27.33;;;10.70;89.30;;;;;;5092369;28;20034;-77
2021/11/14 05:39:46;;;;;;;39.83;26.60;;;10.70;89.30;;;;;;5073989;28;20016;-77
2021/11/14 05:42:12;;;;;;;44.20;27.23;;;10.70;89.30;;;;;;5092222;28;20963;-77
2021/11/14 05:44:37;;;;;;;43.22;27.50;;;10.70;89.40;;;;;;5082531;28;20058;-77
2021/11/14 05:47:03;;;;;;;45.65;25.88;;;10.70;89.40;;;;;;5074066;28;20060;-77
2021/11/14 05:49:29;;;;;;;40.58;26.10;;;10.70;89.40;;;;;;5092434;28;20024;-77
2021/11/14 05:51:55;;;;;;;36.72;24.58;;;10.70;89.40;;;;;;5092137;28;20090;-77
2021/11/14 05:54:20;;;;;;;40.25;24.60;;;10.70;90.00;;;;;;5091587;28;20036;-77
2021/11/14 05:56:46;;;;;;;41.47;26.13;;;10.70;89.40;;;;;;5091834;28;20059;-77
2021/11/14 06:06:32;;;;;;;39.40;23.33;;;10.80;89.40;;;;;;5073444;28;20043;-77
2021/11/14 06:08:57;;;;;;;37.75;23.67;;;10.80;89.40;;;;;;5092041;28;20032;-72
2021/11/14 06:11:25;;;;;;;39.60;25.00;;;10.70;89.30;;;;;;5064432;28;20072;-72
2021/11/14 06:13:52;;;;;;;38.55;25.05;;;10.70;89.90;;;;;;5053683;28;20028;-72
2021/11/14 06:16:18;;;;;;;39.30;24.52;;;10.70;89.40;;;;;;5070357;28;20474;-71
2021/11/14 06:18:43;;;;;;;34.78;24.55;;;10.70;89.40;;;;;;5053407;28;20260;-71
2021/11/14 06:21:09;;;;;;;42.13;25.33;;;10.70;89.40;;;;;;5053285;28;20052;-72
2021/11/14 06:23:35;;;;;;;39.22;24.70;;;10.70;89.40;;;;;;5071408;28;20036;-71
2021/11/14 06:26:01;;;;;;;36.38;24.05;;;10.70;89.40;;;;;;5071166;28;20082;-72
2021/11/14 06:28:27;;;;;;;36.85;24.35;;;10.70;89.40;;;;;;5071185;28;20048;-71
2021/11/14 06:30:53;;;;;;;38.47;23.83;;;10.70;89.40;;;;;;5052297;28;20056;-72
2021/11/14 06:33:18;;;;;;;37.00;24.08;;;10.70;89.30;;;;;;5052960;28;20070;-72
2021/11/14 06:35:45;;;;;;;37.83;24.35;;;10.70;89.30;;;;;;5070670;28;20040;-72
2021/11/14 06:38:10;;;;;;;32.92;22.95;;;10.70;89.40;;;;;;5071489;28;20115;-77
2021/11/14 06:40:36;;;;;;;40.20;24.05;;;10.70;89.40;;;;;;5070979;28;20115;-77
2021/11/14 06:43:03;;;;;;;37.60;23.25;;;10.70;89.40;;;;;;5070299;28;20040;-78
2021/11/14 06:45:28;;;;;;;37.15;24.60;;;10.70;89.40;;;;;;5051861;28;20147;-77
2021/11/14 06:47:55;;;;;;;36.10;22.77;;;10.70;89.30;;;;;;5052971;28;20044;-77
2021/11/14 06:50:20;;;;;;;34.40;21.48;;;10.70;89.40;;;;;;5068414;28;20036;-77
2021/11/14 06:52:47;;;;;;;34.85;22.20;;;10.70;89.40;;;;;;5026647;28;20032;-77
2021/11/14 06:55:15;;;;;;;35.45;22.42;;;10.70;89.40;;;;;;5070515;28;20032;-77
2021/11/14 06:57:41;;;;;;;32.65;21.10;;;10.70;89.40;;;;;;5053224;28;20037;-77
2021/11/14 07:00:14;;;;;;;35.28;21.80;;;10.70;89.40;;;;;;5052414;28;20017;-77
2021/11/14 07:02:40;;;;;;;33.38;20.92;;;10.70;89.30;;;;;;5070716;28;20502;-77
2021/11/14 07:05:07;;;;;;;34.10;21.25;;;10.70;89.30;;;;;;5069842;28;20024;-77
2021/11/14 07:07:33;;;;;;;35.42;21.23;;;10.70;89.20;;;;;;5052964;28;20392;-77
2021/11/14 07:09:59;;;;;;;32.67;20.83;;;10.70;89.30;;;;;;5052793;28;20054;-77
2021/11/14 07:12:26;;;;;;;30.70;20.38;;;10.70;89.20;;;;;;5087427;28;20059;-77
2021/11/14 07:14:52;;;;;;;33.13;21.08;;;10.70;89.20;;;;;;5054796;28;20109;-77
2021/11/14 07:17:18;;;;;;;32.50;20.80;;;10.70;89.10;;;;;;5085132;28;20016;-77
2021/11/14 07:19:45;;;;;;;33.42;20.30;;;10.80;89.20;;;;;;5069332;28;20033;-77
2021/11/14 07:22:11;;;;;;;29.15;18.83;;;10.70;89.10;;;;;;5082902;28;20032;-77
2021/11/14 07:24:36;;;;;;;31.30;20.23;;;10.70;89.20;;;;;;5090123;28;20498;-77
2021/11/14 07:27:02;;;;;;;29.38;18.88;;;10.70;89.60;;;;;;5072374;28;20056;-77
2021/11/14 07:29:28;;;;;;;33.65;19.52;;;10.70;89.00;;;;;;5089972;28;20109;-77
2021/11/14 07:31:54;;;;;;;30.42;19.13;;;10.70;89.00;;;;;;5090199;28;20044;-77
2021/11/14 07:34:20;;;;;;;32.47;20.13;;;10.70;89.00;;;;;;5089954;28;20036;-77
2021/11/14 07:36:45;;;;;;;30.77;18.88;;;10.70;89.00;;;;;;5089964;28;20035;-77
2021/11/14 07:39:11;;;;;;;30.77;19.98;;;10.70;89.00;;;;;;5090426;28;20394;-77
2021/11/14 07:41:37;;;;;;;30.98;18.95;;;10.70;89.00;;;;;;5072571;28;20028;-77
2021/11/14 07:44:03;;;;;;;28.33;18.35;;;10.70;89.00;;;;;;5071887;28;20066;-77
2021/11/14 07:46:29;;;;;;;28.48;17.75;;;10.70;89.00;;;;;;5071155;28;20390;-77
2021/11/14 07:48:56;;;;;;;28.27;18.65;;;10.70;89.00;;;;;;5071814;28;20040;-77
2021/11/14 07:51:22;;;;;;;36.60;17.23;;;10.70;89.00;;;;;;5071412;28;20027;-77
2021/11/14 07:53:48;;;;;;;30.65;18.25;;;10.70;89.00;;;;;;5072585;28;20078;-77
2021/11/14 07:56:14;;;;;;;28.00;18.63;;;10.70;89.00;;;;;;5077341;28;20036;-77
2021/11/14 07:58:40;;;;;;;31.48;18.92;;;10.80;89.00;;;;;;5071461;28;20155;-75
2021/11/14 08:01:06;;;;;;;33.65;19.15;;;10.80;88.90;;;;;;5089636;28;20154;-75
2021/11/14 08:03:32;;;;;;;30.13;18.48;;;10.80;89.00;;;;;;5054949;28;20485;-75
2021/11/14 08:06:01;;;;;;;33.17;18.85;;;10.80;89.00;;;;;;5089231;28;20107;-74
2021/11/14 08:08:27;;;;;;;30.55;17.83;;;10.80;89.00;;;;;;5088807;28;20422;-74
2021/11/14 08:10:54;;;;;;;31.88;18.65;;;10.80;89.00;;;;;;5088884;28;20055;-74
2021/11/14 08:13:20;;;;;;;32.05;19.33;;;10.80;88.90;;;;;;5088461;28;20050;-74
2021/11/14 08:15:46;;;;;;;29.38;18.20;;;10.80;88.90;;;;;;5089948;28;20131;-74
2021/11/14 08:18:12;;;;;;;30.67;17.98;;;10.80;89.00;;;;;;5071373;28;20028;-74
2021/11/14 08:20:38;;;;;;;27.98;16.88;;;10.80;89.00;;;;;;5090344;28;20042;-74
2021/11/14 08:23:05;;;;;;;27.85;16.75;;;10.80;88.90;;;;;;5089476;28;20478;-74
2021/11/14 08:25:34;;;;;;;26.38;16.80;;;10.80;88.90;;;;;;5071489;28;20102;-74
2021/11/14 08:28:00;;;;;;;26.80;15.77;;;10.80;88.90;;;;;;5072029;28;20543;-74
2021/11/14 08:30:26;;;;;;;26.98;17.10;;;10.80;88.90;;;;;;5087709;28;20035;-75
2021/11/14 08:32:52;;;;;;;29.50;17.48;;;10.80;89.50;;;;;;5088964;28;20031;-74
2021/11/14 08:35:20;;;;;;;25.67;16.02;;;10.80;88.80;;;;;;5088785;28;20059;-75
2021/11/14 08:37:48;;;;;;;27.17;16.75;;;10.80;88.80;;;;;;5088205;28;20268;-72
2021/11/14 08:40:15;;;;;;;25.58;16.77;;;10.80;88.80;;;;;;5084810;28;20043;-72
2021/11/14 08:42:41;;;;;;;27.75;16.65;;;10.80;88.80;;;;;;5089810;28;20036;-71
2021/11/14 08:45:07;;;;;;;30.65;16.88;;;10.90;88.80;;;;;;5071214;28;20320;-72
2021/11/14 08:47:34;;;;;;;31.50;18.10;;;10.90;88.70;;;;;;5070742;28;20028;-71
2021/11/14 08:50:00;;;;;;;28.33;17.75;;;10.90;88.70;;;;;;5082505;28;20036;-70
2021/11/14 08:52:26;;;;;;;27.55;17.50;;;10.90;88.70;;;;;;5088109;28;20085;-71
2021/11/14 08:54:51;;;;;;;28.30;18.40;;;10.90;88.70;;;;;;5093079;28;20030;-71
2021/11/14 08:57:18;;;;;;;26.23;16.23;;;10.90;88.80;;;;;;5070247;28;20465;-71
2021/11/14 08:59:46;;;;;;;28.00;16.83;;;10.90;88.80;;;;;;5088124;28;20020;-72
2021/11/14 09:02:12;;;;;;;25.90;15.60;;;10.80;88.80;;;;;;5070930;28;20032;-72
2021/11/14 09:04:37;;;;;;;31.92;18.15;;;10.90;88.90;;;;;;5088203;28;20067;-75
2021/11/14 09:07:04;;;;;;;27.38;16.58;;;10.90;88.80;;;;;;5090367;28;20056;-75
2021/11/14 09:09:30;;;;;;;28.70;16.85;;;10.90;88.80;;;;;;5092829;28;20504;-74
2021/11/14 09:11:56;;;;;;;32.55;18.05;;;11.00;89.50;;;;;;5092203;28;20498;-74
2021/11/14 09:14:23;;;;;;;29.60;17.02;;;11.00;88.80;;;;;;5092287;28;20024;-75
2021/11/14 09:16:51;;;;;;;28.77;17.85;;;11.00;88.70;;;;;;5062385;28;20024;-75
2021/11/14 09:19:17;;;;;;;32.10;18.83;;;11.00;88.70;;;;;;5070839;28;20028;-75
2021/11/14 09:21:43;;;;;;;28.77;17.50;;;11.00;88.70;;;;;;5092273;28;20493;-74
2021/11/14 09:24:10;;;;;;;32.20;17.88;;;11.00;88.70;;;;;;5074828;28;20028;-74
2021/11/14 09:26:37;;;;;;;30.05;18.02;;;11.10;88.80;;;;;;5073608;28;20035;-75
2021/11/14 09:29:03;;;;;;;32.88;18.65;;;11.10;88.70;;;;;;5093167;28;20081;-75
2021/11/14 09:31:29;;;;;;;28.58;17.58;;;11.10;88.60;;;;;;5091826;28;20024;-75
2021/11/14 09:33:57;;;;;;;29.98;17.52;;;11.10;88.60;;;;;;5092720;28;20032;-72
2021/11/14 09:36:26;;;;;;;30.15;16.98;;;11.00;88.60;;;;;;5074701;28;20386;-72
2021/11/14 09:38:52;;;;;;;30.25;18.38;;;11.10;88.70;;;;;;5091115;28;20032;-74
2021/11/14 09:41:18;;;;;;;31.55;17.80;;;11.00;88.60;;;;;;5073858;28;20028;-75
2021/11/14 09:43:45;;;;;;;26.73;16.40;;;11.00;88.50;;;;;;5091408;28;20035;-75
2021/11/14 09:46:11;;;;;;;28.42;17.25;;;11.00;88.50;;;;;;5091576;28;20032;-74
2021/11/14 09:48:36;;;;;;;31.33;18.48;;;11.00;88.60;;;;;;5078045;28;20062;-74
2021/11/14 09:51:03;;;;;;;31.88;18.48;;;11.00;88.60;;;;;;5098434;28;20532;-74
2021/11/14 09:53:34;;;;;;;28.50;17.48;;;11.00;88.50;;;;;;5091869;28;20062;-74
2021/11/14 09:56:03;;;;;;;29.30;18.00;;;11.10;88.60;;;;;;5091049;28;20036;-74
2021/11/14 09:58:30;;;;;;;29.95;17.33;;;11.10;88.40;;;;;;5092170;28;20020;-74
2021/11/14 10:00:55;;;;;;;26.20;16.83;;;11.10;88.40;;;;;;5091707;28;20474;-73
2021/11/14 10:03:22;;;;;;;28.33;16.85;;;11.10;88.30;;;;;;5067755;28;20027;-73
2021/11/14 10:05:48;;;;;;;27.17;17.98;;;11.20;88.30;;;;;;5073205;28;20024;-71
2021/11/14 10:08:17;;;;;;;25.45;17.42;;;11.20;88.20;;;;;;5092101;28;20098;-72
2021/11/14 10:10:52;;;;;;;28.40;18.33;;;11.20;88.10;;;;;;5090663;28;20445;-72
2021/11/14 10:13:28;;;;;;;28.92;17.40;;;11.10;88.00;;;;;;5088213;28;20024;-72
2021/11/14 10:16:12;;;;;;;24.52;16.65;;;11.10;88.10;;;;;;5072691;28;20394;-73
2021/11/14 10:18:40;;;;;;;28.05;17.65;;;11.20;87.90;;;;;;5090772;28;20050;-72
2021/11/14 10:21:06;;;;;;;28.48;17.38;;;11.20;87.90;;;;;;5091130;28;20169;-74
2021/11/14 10:23:34;;;;;;;22.75;16.08;;;11.20;88.00;;;;;;5091586;28;20040;-74
2021/11/14 10:26:06;;;;;;;26.35;18.00;;;11.20;87.90;;;;;;5090624;28;20028;-74
2021/11/14 10:28:32;;;;;;;;;;;11.20;87.90;;;;;;5091854;28;20514;-74
2021/11/14 10:30:59;;;;;;;24.92;16.02;;;11.10;87.80;;;;;;5071899;28;19989;-74
2021/11/14 10:33:25;;;;;;;26.63;17.17;;;11.20;87.80;;;;;;5091252;28;20043;-74
2021/11/14 10:35:56;;;;;;;26.60;17.58;;;11.20;87.70;;;;;;5090510;28;20077;-74
2021/11/14 10:38:28;;;;;;;25.50;16.63;;;11.10;87.70;;;;;;5091006;28;20106;-74
2021/11/14 10:40:57;;;;;;;27.67;17.33;;;11.20;87.70;;;;;;5088287;28;20032;-74
2021/11/14 10:43:25;;;;;;;27.30;18.00;;;11.10;87.60;;;;;;5089710;28;20121;-74
2021/11/14 10:45:52;;;;;;;31.15;19.20;;;11.20;87.50;;;;;;5090000;28;20040;-74
2021/11/14 10:48:23;;;;;;;27.75;18.48;;;11.20;87.50;;;;;;5089388;28;20062;-74
2021/11/14 10:50:53;;;;;;;31.35;18.85;;;11.20;87.60;;;;;;5087742;28;20035;-74
2021/11/14 10:53:23;;;;;;;34.25;19.73;;;11.20;87.50;;;;;;5070891;28;20070;-74
2021/11/14 10:55:55;;;;;;;32.90;20.20;;;11.20;87.40;;;;;;5088894;28;20047;-74
2021/11/14 10:58:24;;;;;;;31.20;18.92;;;11.20;87.30;;;;;;5088110;28;20600;-74
2021/11/14 11:00:53;;;;;;;31.10;18.55;;;11.20;87.30;;;;;;5089036;28;20029;-74
2021/11/14 11:03:20;;;;;;;29.83;19.13;;;11.30;87.50;;;;;;5070641;28;20027;-74
2021/11/14 11:05:46;;;;;;;31.33;19.58;;;11.30;87.40;;;;;;5091002;28;20016;-74
2021/11/14 11:08:20;;;;;;;30.67;20.20;;;11.30;87.40;;;;;;5073263;28;20036;-74
2021/11/14 11:11:00;;;;;;;32.97;20.08;;;11.30;87.30;;;;;;5088300;28;20041;-74
2021/11/14 11:13:39;;;;;;;29.83;19.27;;;11.40;87.20;;;;;;5091062;28;20032;-74
2021/11/14 11:16:07;;;;;;;31.33;20.08;;;11.40;87.20;;;;;;5090245;28;20137;-74
2021/11/14 11:18:34;;;;;;;31.23;20.25;;;11.40;87.40;;;;;;5072493;28;21354;-74
2021/11/14 11:21:03;;;;;;;30.65;19.15;;;11.40;87.20;;;;;;5072419;28;20058;-74
2021/11/14 11:23:31;;;;;;;35.83;21.08;;;11.40;87.00;;;;;;5090263;28;20528;-74
2021/11/14 11:26:03;;;;;;;31.17;18.63;;;11.50;87.00;;;;;;5069660;28;20565;-74
2021/11/14 11:28:35;;;;;;;32.10;19.40;;;11.40;86.90;;;;;;5076870;28;20020;-74
2021/11/14 11:31:11;;;;;;;34.13;20.60;;;11.50;87.00;;;;;;5082056;28;20032;-74
2021/11/14 11:33:39;;;;;;;32.83;20.80;;;11.50;87.00;;;;;;5088629;28;20055;-74
2021/11/14 11:36:07;;;;;;;31.30;20.42;;;11.50;86.80;;;;;;5089731;28;20057;-74
2021/11/14 11:38:35;;;;;;;34.13;20.45;;;11.50;86.80;;;;;;5083439;28;20042;-74
2021/11/14 11:41:01;;;;;;;30.67;18.63;;;11.60;86.80;;;;;;5089013;28;20028;-74
2021/11/14 11:43:27;;;;;;;31.05;20.05;;;11.60;86.70;;;;;;5088832;28;20062;-74
2021/11/14 11:46:02;;;;;;;35.22;21.40;;;11.60;86.60;;;;;;5082705;28;20020;-74
2021/11/14 11:48:48;;;;;;;32.67;19.90;;;11.70;86.40;;;;;;5088681;28;20493;-74
2021/11/14 11:51:19;;;;;;;35.78;21.25;;;11.70;86.40;;;;;;5090503;28;20016;-74
2021/11/14 11:54:01;;;;;;;32.60;19.52;;;11.70;86.40;;;;;;5089028;28;20036;-74
2021/11/14 11:56:56;;;;;;;32.03;19.85;;;11.70;86.40;;;;;;5088763;28;20533;-74
2021/11/14 11:59:35;;;;;;;35.00;21.70;;;11.80;86.40;;;;;;5085141;28;20486;-74
2021/11/14 12:02:03;;;;;;;32.63;20.45;;;11.80;86.30;;;;;;5084687;28;20032;-74
2021/11/14 12:04:42;;;;;;;31.70;19.85;;;11.80;86.90;;;;;;5071572;28;20036;-74
2021/11/14 12:07:11;;;;;;;31.70;19.88;;;11.80;86.30;;;;;;5083376;28;20066;-74
2021/11/14 12:09:51;;;;;;;30.27;19.13;;;11.80;86.30;;;;;;5065361;28;20038;-74
2021/11/14 12:12:24;;;;;;;31.15;19.17;;;11.80;86.40;;;;;;5083313;28;20040;-74
2021/11/14 12:15:06;;;;;;;30.63;18.65;;;11.90;86.30;;;;;;5085637;28;20016;-74
2021/11/14 12:17:33;;;;;;;31.88;20.08;;;11.90;86.30;;;;;;5088047;28;20024;-74
2021/11/14 12:20:11;;;;;;;33.88;20.60;;;11.90;86.10;;;;;;5051395;28;20479;-74
2021/11/14 12:22:46;;;;;;;30.23;18.55;;;11.90;86.00;;;;;;5065948;28;20382;-74
2021/11/14 12:25:40;;;;;;;29.20;17.92;;;11.90;86.10;;;;;;5069752;28;20032;-74
2021/11/14 12:28:13;;;;;;;29.23;18.85;;;11.90;86.00;;;;;;5086939;28;20036;-72
2021/11/14 12:33:36;;;;;;;26.23;17.63;;;11.90;86.00;;;;;;5088213;28;20036;-72
2021/11/14 12:36:09;;;;;;;27.77;18.30;;;11.90;85.90;;;;;;5086254;28;20030;-73
2021/11/14 12:38:36;;;;;;;30.80;19.55;;;11.90;85.70;;;;;;5088765;28;20222;-72
2021/11/14 12:41:09;;;;;;;28.10;18.98;;;12.00;85.70;;;;;;5075161;28;20035;-72
2021/11/14 12:43:43;;;;;;;28.42;18.23;;;12.00;85.40;;;;;;5084192;28;20122;-73